Time;durP1;ratioP1;P1;durP2;ratioP2;P2;SDS_P1;SDS_P2;PMS_P1;PMS_P2;Temp;Humidity;BMP_temperature;BMP_pressure;BME280_temperature;BME280_humidity;BME280_pressure;Samples;Min_cycle;Max_cycle;Signal;HPM_P1;HPM_P2
2022/05/10 00:02:12;;;;;;;8.20;5.95;;;16.90;99.90;;;;;;5055707;28;20482;-72
2022/05/10 00:04:39;;;;;;;9.63;6.32;;;16.90;99.90;;;;;;5054493;28;20045;-72
2022/05/10 00:07:06;;;;;;;8.70;6.25;;;16.80;99.90;;;;;;5054179;28;20051;-72
2022/05/10 00:09:33;;;;;;;10.05;5.85;;;16.80;99.90;;;;;;5054439;28;20045;-73
2022/05/10 00:12:00;;;;;;;8.75;6.13;;;16.80;99.90;;;;;;5055407;28;20052;-72
2022/05/10 00:14:27;;;;;;;7.57;5.80;;;16.80;99.90;;;;;;5054239;28;20041;-71
2022/05/10 00:16:54;;;;;;;10.00;6.65;;;16.80;99.90;;;;;;5037988;28;20052;-72
2022/05/10 00:19:22;;;;;;;8.20;5.80;;;16.80;99.90;;;;;;5054351;28;20048;-71
2022/05/10 00:21:49;;;;;;;10.40;6.70;;;16.80;99.90;;;;;;5054689;28;20052;-71
2022/05/10 00:24:16;;;;;;;9.13;5.68;;;16.70;99.90;;;;;;5054969;28;20053;-72
2022/05/10 00:26:43;;;;;;;10.13;6.53;;;16.70;99.90;;;;;;5055038;28;20539;-71
2022/05/10 00:29:10;;;;;;;10.05;5.65;;;16.70;99.90;;;;;;5053713;28;20040;-71
2022/05/10 00:31:37;;;;;;;7.13;5.43;;;16.70;99.90;;;;;;5053962;28;20049;-72
2022/05/10 00:34:04;;;;;;;8.55;5.93;;;16.70;99.90;;;;;;5053667;28;20076;-72
2022/05/10 00:36:31;;;;;;;7.75;6.35;;;16.70;99.90;;;;;;5053944;28;20399;-72
2022/05/10 00:38:57;;;;;;;14.18;7.15;;;16.70;99.90;;;;;;5055888;28;20045;-71
2022/05/10 00:41:47;;;;;;;8.82;7.07;;;16.70;99.90;;;;;;5053803;28;20045;-71
2022/05/10 00:44:20;;;;;;;7.88;6.22;;;16.70;99.90;;;;;;5053573;28;20049;-71
2022/05/10 00:47:09;;;;;;;8.25;6.07;;;16.70;99.90;;;;;;5054010;28;20056;-71
2022/05/10 00:49:40;;;;;;;12.80;7.05;;;16.70;99.90;;;;;;5054319;28;20053;-72
2022/05/10 00:52:18;;;;;;;8.90;6.50;;;16.70;99.90;;;;;;5054518;28;20052;-71
2022/05/10 00:55:01;;;;;;;10.40;6.93;;;16.70;99.90;;;;;;5054077;28;20052;-71
2022/05/10 00:57:33;;;;;;;9.30;5.65;;;16.70;99.90;;;;;;5037146;28;20135;-71
2022/05/10 01:00:09;;;;;;;8.85;5.53;;;16.60;99.90;;;;;;5055394;28;20044;-72
2022/05/10 01:02:55;;;;;;;12.38;5.95;;;16.70;99.90;;;;;;5036784;28;20053;-71
2022/05/10 01:05:23;;;;;;;10.32;5.53;;;16.70;99.90;;;;;;5053301;28;20094;-72
2022/05/10 01:08:08;;;;;;;6.80;5.25;;;16.70;99.90;;;;;;5054235;28;20040;-72
2022/05/10 01:10:44;;;;;;;6.38;4.95;;;16.70;99.90;;;;;;5054042;28;20052;-72
2022/05/10 01:13:27;;;;;;;6.82;5.70;;;16.70;99.90;;;;;;5054034;28;20135;-72
2022/05/10 01:16:05;;;;;;;7.03;5.32;;;16.70;99.90;;;;;;5053234;28;20440;-72
2022/05/10 01:18:32;;;;;;;7.82;5.40;;;16.70;99.90;;;;;;5054178;28;20056;-72
2022/05/10 01:21:10;;;;;;;8.45;5.70;;;16.60;99.90;;;;;;5053030;28;20534;-72
2022/05/10 01:23:41;;;;;;;7.70;5.75;;;16.70;99.90;;;;;;5037285;28;20468;-73
2022/05/10 01:26:16;;;;;;;12.43;6.82;;;16.70;99.90;;;;;;5053577;28;20061;-72
2022/05/10 01:29:10;;;;;;;11.77;5.78;;;16.70;99.90;;;;;;5053675;28;20041;-72
2022/05/10 01:31:44;;;;;;;7.25;5.13;;;16.70;99.90;;;;;;5053828;28;20476;-72
2022/05/10 01:34:15;;;;;;;9.18;5.70;;;16.60;99.90;;;;;;5052882;28;20041;-72
2022/05/10 01:36:56;;;;;;;12.30;5.68;;;16.70;99.90;;;;;;5054225;28;20358;-72
2022/05/10 01:39:46;;;;;;;9.88;5.35;;;16.70;99.90;;;;;;5052452;28;20050;-72
2022/05/10 01:42:18;;;;;;;7.95;6.13;;;16.70;99.90;;;;;;5038097;28;20037;-72
2022/05/10 01:45:00;;;;;;;8.70;5.78;;;16.60;99.90;;;;;;5052967;28;20338;-72
2022/05/10 01:47:33;;;;;;;10.30;5.55;;;16.60;99.90;;;;;;5054588;28;20376;-72
2022/05/10 01:50:10;;;;;;;8.95;5.95;;;16.60;99.90;;;;;;5053068;28;20044;-72
2022/05/10 01:52:58;;;;;;;8.40;6.30;;;16.60;99.90;;;;;;5053439;28;20049;-71
2022/05/10 01:55:29;;;;;;;8.30;6.10;;;16.60;99.90;;;;;;5053396;28;20045;-72
2022/05/10 01:58:00;;;;;;;10.07;7.40;;;16.60;99.90;;;;;;5052563;28;20052;-72
2022/05/10 02:00:27;;;;;;;10.60;5.53;;;16.50;99.90;;;;;;5054485;28;20068;-72
2022/05/10 02:02:59;;;;;;;8.48;6.13;;;16.60;99.90;;;;;;5052350;28;20468;-71
2022/05/10 02:05:32;;;;;;;9.07;5.80;;;16.50;99.90;;;;;;5053774;28;20539;-71
2022/05/10 02:08:04;;;;;;;9.88;5.68;;;16.60;99.90;;;;;;5035642;28;20472;-72
2022/05/10 02:10:38;;;;;;;7.70;6.10;;;16.50;99.90;;;;;;5053113;28;20045;-72
2022/05/10 02:13:18;;;;;;;9.75;5.53;;;16.50;99.90;;;;;;5051929;28;20051;-72
2022/05/10 02:16:00;;;;;;;8.13;6.25;;;16.50;99.90;;;;;;5054027;28;20041;-71
2022/05/10 02:18:34;;;;;;;7.72;5.82;;;16.50;99.90;;;;;;5051956;28;20460;-70
2022/05/10 02:21:07;;;;;;;10.60;7.18;;;16.50;99.90;;;;;;5054446;28;20041;-71
2022/05/10 02:24:02;;;;;;;9.48;7.05;;;16.50;99.90;;;;;;5053997;28;20067;-71
2022/05/10 02:26:32;;;;;;;8.30;6.05;;;16.50;99.90;;;;;;5051402;28;20056;-72
2022/05/10 02:29:02;;;;;;;10.70;6.72;;;16.40;99.90;;;;;;5052730;28;20045;-72
2022/05/10 02:34:40;;;;;;;9.15;6.68;;;16.40;99.90;;;;;;5052170;28;20040;-73
2022/05/10 02:37:07;;;;;;;15.57;7.60;;;16.30;99.90;;;;;;5055399;28;20473;-71
2022/05/10 02:39:34;;;;;;;12.00;7.65;;;16.30;99.90;;;;;;5058114;28;20037;-71
2022/05/10 02:42:02;;;;;;;11.27;6.82;;;16.30;99.90;;;;;;5056220;28;20045;-71
2022/05/10 02:44:34;;;;;;;9.05;6.40;;;16.30;99.90;;;;;;5055800;28;20503;-71
2022/05/10 02:47:01;;;;;;;11.70;7.00;;;16.20;99.90;;;;;;5056543;28;20056;-71
2022/05/10 02:49:28;;;;;;;11.45;7.32;;;16.20;99.90;;;;;;5055637;28;20484;-71
2022/05/10 02:51:55;;;;;;;12.75;8.07;;;16.20;99.90;;;;;;5055799;28;20075;-71
2022/05/10 02:54:22;;;;;;;11.65;7.85;;;16.20;99.90;;;;;;5055901;28;20041;-71
2022/05/10 02:56:49;;;;;;;10.90;7.63;;;16.20;99.90;;;;;;5056424;28;20480;-71
2022/05/10 02:59:27;;;;;;;9.50;7.65;;;16.10;99.90;;;;;;5057592;28;20049;-71
2022/05/10 03:02:02;;;;;;;10.95;7.53;;;16.10;99.90;;;;;;5056614;28;20091;-71
2022/05/10 03:04:38;;;;;;;9.80;7.28;;;16.20;99.90;;;;;;5055655;28;20071;-71
2022/05/10 03:07:05;;;;;;;10.55;7.38;;;16.20;99.90;;;;;;5039123;28;20041;-72
2022/05/10 03:09:32;;;;;;;13.07;7.28;;;16.10;99.90;;;;;;5038748;28;20052;-71
2022/05/10 03:11:59;;;;;;;11.25;8.23;;;16.10;99.90;;;;;;5056340;28;20400;-72
2022/05/10 03:14:26;;;;;;;8.25;6.75;;;16.10;99.90;;;;;;5055598;28;20041;-72
2022/05/10 03:16:53;;;;;;;8.75;6.40;;;16.10;99.90;;;;;;5055521;28;20074;-71
2022/05/10 03:19:20;;;;;;;10.63;6.47;;;16.10;99.90;;;;;;5055018;28;20041;-71
2022/05/10 03:21:47;;;;;;;10.80;7.05;;;16.10;99.90;;;;;;5055033;28;20155;-71
2022/05/10 03:24:14;;;;;;;11.13;5.93;;;16.10;99.90;;;;;;5039305;28;20052;-71
2022/05/10 03:26:47;;;;;;;8.93;4.85;;;16.20;99.90;;;;;;5056503;28;20481;-71
2022/05/10 03:29:15;;;;;;;9.27;5.35;;;16.20;99.90;;;;;;5055006;28;20041;-71
2022/05/10 03:31:42;;;;;;;11.10;4.95;;;16.20;99.90;;;;;;5054751;28;20483;-71
2022/05/10 03:36:54;;;;;;;6.05;4.45;;;16.10;99.90;;;;;;5056157;28;20044;-71
2022/05/10 03:39:21;;;;;;;5.78;4.32;;;16.10;99.90;;;;;;5056178;28;20068;-72
2022/05/10 03:41:48;;;;;;;5.78;4.07;;;16.10;99.90;;;;;;5054689;28;20049;-71
2022/05/10 03:44:15;;;;;;;5.88;3.85;;;16.10;99.90;;;;;;5055861;28;20041;-72
2022/05/10 03:46:44;;;;;;;6.82;4.20;;;16.00;99.90;;;;;;5054407;28;20444;-71
2022/05/10 03:49:12;;;;;;;5.50;4.30;;;16.00;99.90;;;;;;5055660;28;20041;-71
2022/05/10 03:51:45;;;;;;;5.75;3.78;;;16.00;99.90;;;;;;5056506;28;20045;-71
2022/05/10 03:54:12;;;;;;;7.47;4.53;;;16.00;99.90;;;;;;5055729;28;20045;-71
2022/05/10 03:56:39;;;;;;;6.65;4.53;;;15.90;99.90;;;;;;5055988;28;20045;-72
2022/05/10 03:59:06;;;;;;;8.02;4.53;;;15.90;99.90;;;;;;5054631;28;20057;-72
2022/05/10 04:01:33;;;;;;;6.47;4.63;;;15.80;99.90;;;;;;5054595;28;20037;-72
2022/05/10 04:04:01;;;;;;;8.13;5.32;;;15.80;99.90;;;;;;5054579;28;20123;-72
2022/05/10 04:06:28;;;;;;;7.60;5.68;;;15.70;99.90;;;;;;5054903;28;20408;-73
2022/05/10 04:08:55;;;;;;;7.18;4.68;;;15.80;99.90;;;;;;5054313;28;20041;-70
2022/05/10 04:11:22;;;;;;;8.75;6.13;;;15.70;99.90;;;;;;5054409;28;20048;-68
2022/05/10 04:13:49;;;;;;;8.15;5.38;;;15.70;99.90;;;;;;5054282;28;20056;-71
2022/05/10 04:16:18;;;;;;;7.10;5.13;;;15.70;99.90;;;;;;5054574;28;20056;-70
2022/05/10 04:18:45;;;;;;;6.63;4.93;;;15.60;99.90;;;;;;5055770;28;20081;-70
2022/05/10 04:21:12;;;;;;;8.18;5.18;;;15.60;99.90;;;;;;5055518;28;20041;-70
2022/05/10 04:23:39;;;;;;;7.80;4.75;;;15.60;99.90;;;;;;5054270;28;20052;-71
2022/05/10 04:26:13;;;;;;;6.68;4.32;;;15.60;99.90;;;;;;5053780;28;20507;-71
2022/05/10 04:28:41;;;;;;;7.32;4.50;;;15.60;99.90;;;;;;5056089;28;20340;-71
2022/05/10 04:31:08;;;;;;;8.45;4.90;;;15.50;99.90;;;;;;5053684;28;20045;-70
2022/05/10 04:33:35;;;;;;;6.93;5.65;;;15.50;99.90;;;;;;5053693;28;20041;-71
2022/05/10 04:36:02;;;;;;;7.95;4.80;;;15.50;99.90;;;;;;5053777;28;20077;-71
2022/05/10 04:38:29;;;;;;;6.72;4.50;;;15.50;99.90;;;;;;5055040;28;20382;-71
2022/05/10 04:43:41;;;;;;;5.10;4.53;;;15.50;99.90;;;;;;5053897;28;20053;-71
2022/05/10 04:46:08;;;;;;;9.65;5.80;;;15.50;99.90;;;;;;5053428;28;20052;-71
2022/05/10 04:48:35;;;;;;;7.20;5.20;;;15.40;99.90;;;;;;5054429;28;20045;-71
2022/05/10 04:51:03;;;;;;;7.45;4.53;;;15.30;99.90;;;;;;5053613;28;20578;-71
2022/05/10 04:53:30;;;;;;;8.48;5.30;;;15.30;99.90;;;;;;5054415;28;20048;-71
2022/05/10 04:55:57;;;;;;;6.78;5.07;;;15.30;99.90;;;;;;5053434;28;20052;-71
2022/05/10 04:58:24;;;;;;;9.50;5.18;;;15.30;99.90;;;;;;5035886;28;20049;-71
2022/05/10 05:00:51;;;;;;;9.13;5.55;;;15.20;99.90;;;;;;5055275;28;20041;-71
2022/05/10 05:03:18;;;;;;;8.40;5.80;;;15.20;99.90;;;;;;5053513;28;20477;-71
2022/05/10 05:05:45;;;;;;;7.53;4.80;;;15.30;99.90;;;;;;5055027;28;20099;-71
2022/05/10 05:08:12;;;;;;;5.95;4.85;;;15.30;99.90;;;;;;5053767;28;20366;-71
2022/05/10 05:10:39;;;;;;;8.85;5.63;;;15.30;99.90;;;;;;5054842;28;20456;-71
2022/05/10 05:13:06;;;;;;;5.55;4.05;;;15.30;99.90;;;;;;5053031;28;20044;-70
2022/05/10 05:15:32;;;;;;;6.20;4.22;;;15.30;99.90;;;;;;5054145;28;20048;-70
2022/05/10 05:18:03;;;;;;;6.72;5.18;;;15.30;99.90;;;;;;5052913;28;20041;-70
2022/05/10 05:20:30;;;;;;;5.35;4.30;;;15.20;99.90;;;;;;5052746;28;20048;-70
2022/05/10 05:22:57;;;;;;;5.38;4.10;;;15.30;99.90;;;;;;5053476;28;20040;-70
2022/05/10 05:25:24;;;;;;;9.90;4.47;;;15.30;99.90;;;;;;5053738;28;20068;-70
2022/05/10 05:27:51;;;;;;;7.93;5.07;;;15.30;99.90;;;;;;5053399;28;20056;-70
2022/05/10 05:30:18;;;;;;;8.32;5.18;;;15.30;99.90;;;;;;5052562;28;20496;-70
2022/05/10 05:32:45;;;;;;;7.88;5.43;;;15.30;99.90;;;;;;5053580;28;20048;-70
2022/05/10 05:35:13;;;;;;;6.70;5.15;;;15.30;99.90;;;;;;5053641;28;20041;-70
2022/05/10 05:37:40;;;;;;;7.30;4.72;;;15.30;99.90;;;;;;5053416;28;20072;-70
2022/05/10 05:40:09;;;;;;;7.20;5.10;;;15.20;99.90;;;;;;5052464;28;20146;-71
2022/05/10 05:42:44;;;;;;;8.45;5.53;;;15.30;99.90;;;;;;5053260;28;20102;-70
2022/05/10 05:45:12;;;;;;;6.55;4.57;;;15.40;99.90;;;;;;5052296;28;20056;-70
2022/05/10 05:47:39;;;;;;;11.98;6.15;;;15.40;99.90;;;;;;5052558;28;20045;-69
2022/05/10 05:50:06;;;;;;;10.35;7.88;;;15.40;99.90;;;;;;5052420;28;20041;-69
2022/05/10 05:52:33;;;;;;;9.75;6.65;;;15.40;99.90;;;;;;5053661;28;20053;-69
2022/05/10 05:55:00;;;;;;;7.65;5.00;;;15.40;99.90;;;;;;5052850;28;20075;-70
2022/05/10 05:57:27;;;;;;;6.88;4.53;;;15.50;99.90;;;;;;5053299;28;20057;-70
2022/05/10 05:59:55;;;;;;;9.50;5.95;;;15.50;99.90;;;;;;5052932;28;20041;-71
2022/05/10 06:02:22;;;;;;;6.97;4.72;;;15.50;99.90;;;;;;5052304;28;20396;-71
2022/05/10 06:04:49;;;;;;;44.75;36.03;;;15.60;99.90;;;;;;5053379;28;20388;-71
2022/05/10 06:07:17;;;;;;;38.22;34.13;;;15.60;99.90;;;;;;5052849;28;20041;-73
2022/05/10 06:09:44;;;;;;;19.15;10.77;;;15.70;99.90;;;;;;5052044;28;20481;-71
2022/05/10 06:12:13;;;;;;;19.45;12.73;;;15.80;99.90;;;;;;5053169;28;20047;-70
2022/05/10 06:14:40;;;;;;;11.63;6.40;;;15.90;99.90;;;;;;5052330;28;20040;-70
2022/05/10 06:17:08;;;;;;;8.63;5.30;;;16.00;99.90;;;;;;5052124;28;20041;-71
2022/05/10 06:19:36;;;;;;;8.07;5.82;;;16.20;99.90;;;;;;5035858;28;20037;-69
2022/05/10 06:22:04;;;;;;;8.27;5.78;;;16.30;99.90;;;;;;5053127;28;20037;-73
2022/05/10 06:24:31;;;;;;;8.80;5.72;;;16.30;99.90;;;;;;5052169;28;20041;-68
2022/05/10 06:26:57;;;;;;;11.27;6.80;;;16.30;99.90;;;;;;5053496;28;20045;-72
2022/05/10 06:29:24;;;;;;;8.95;6.35;;;16.30;99.90;;;;;;5053366;28;20037;-73
2022/05/10 06:31:51;;;;;;;11.70;7.38;;;16.30;99.90;;;;;;5052170;28;20051;-71
2022/05/10 06:34:18;;;;;;;9.60;7.13;;;16.30;99.90;;;;;;5051660;28;20060;-71
2022/05/10 06:36:45;;;;;;;7.45;6.65;;;16.30;99.90;;;;;;5052901;28;20047;-71
2022/05/10 06:39:12;;;;;;;9.05;6.63;;;16.40;99.90;;;;;;5051766;28;20037;-71
2022/05/10 06:41:39;;;;;;;8.85;6.50;;;16.40;99.90;;;;;;5053032;28;20071;-71
2022/05/10 06:44:06;;;;;;;10.32;6.47;;;16.50;99.90;;;;;;5052884;28;20087;-71
2022/05/10 06:46:34;;;;;;;9.02;7.07;;;16.50;99.90;;;;;;5053726;28;20045;-72
2022/05/10 06:49:04;;;;;;;8.63;6.73;;;16.60;99.90;;;;;;5051684;28;20045;-72
2022/05/10 06:51:31;;;;;;;12.02;8.13;;;16.60;99.90;;;;;;5051979;28;20041;-71
2022/05/10 06:53:58;;;;;;;10.70;7.05;;;16.60;99.90;;;;;;5051532;28;20055;-72
2022/05/10 06:56:25;;;;;;;7.72;6.85;;;16.60;99.90;;;;;;5052663;28;20124;-72
2022/05/10 06:58:52;;;;;;;11.27;7.35;;;16.60;99.90;;;;;;5051797;28;20071;-74
2022/05/10 07:01:19;;;;;;;9.23;6.55;;;16.50;99.90;;;;;;5053805;28;20041;-74
2022/05/10 07:03:47;;;;;;;9.07;6.68;;;16.50;99.90;;;;;;5051668;28;20053;-72
2022/05/10 07:06:16;;;;;;;12.65;8.27;;;16.40;99.90;;;;;;5035350;28;20420;-75
2022/05/10 07:08:43;;;;;;;13.55;7.55;;;16.30;99.90;;;;;;5051828;28;20071;-72
2022/05/10 07:11:10;;;;;;;10.93;8.05;;;16.30;99.90;;;;;;5051342;28;20045;-72
2022/05/10 07:13:37;;;;;;;149.80;133.88;;;16.10;99.90;;;;;;5052165;28;20052;-70
2022/05/10 07:16:04;;;;;;;27.65;23.67;;;16.10;99.90;;;;;;5053156;28;20052;-72
2022/05/10 07:18:31;;;;;;;33.15;24.13;;;16.10;99.90;;;;;;5035040;28;20049;-70
2022/05/10 07:20:58;;;;;;;19.65;13.68;;;16.10;99.90;;;;;;5052218;28;20044;-71
2022/05/10 07:23:28;;;;;;;11.32;9.02;;;16.00;99.90;;;;;;5057253;28;20045;-69
2022/05/10 07:26:01;;;;;;;11.23;8.52;;;16.10;99.90;;;;;;5056393;28;20491;-70
2022/05/10 07:28:29;;;;;;;9.27;7.82;;;16.00;99.90;;;;;;5055916;28;20118;-69
2022/05/10 07:30:57;;;;;;;11.18;8.50;;;16.10;99.90;;;;;;5055271;28;20051;-70
2022/05/10 07:33:25;;;;;;;12.38;8.27;;;16.10;99.90;;;;;;5055945;28;20041;-70
2022/05/10 07:38:38;;;;;;;13.70;9.65;;;16.00;99.90;;;;;;5055010;28;20049;-76
2022/05/10 07:41:07;;;;;;;13.40;8.80;;;15.90;99.90;;;;;;5054967;28;20045;-75
2022/05/10 07:43:35;;;;;;;11.13;7.90;;;15.90;99.90;;;;;;5055147;28;20041;-74
2022/05/10 07:46:02;;;;;;;11.27;8.70;;;15.90;99.90;;;;;;5054933;28;20040;-72
2022/05/10 07:48:29;;;;;;;10.65;7.15;;;15.80;99.90;;;;;;5055579;28;20045;-72
2022/05/10 07:50:57;;;;;;;14.05;7.90;;;15.80;99.90;;;;;;5056221;28;20041;-72
2022/05/10 07:53:24;;;;;;;10.13;7.80;;;15.90;99.90;;;;;;5054755;28;20052;-73
2022/05/10 07:55:50;;;;;;;9.70;6.78;;;15.90;99.90;;;;;;5055626;28;20044;-76
2022/05/10 07:58:17;;;;;;;11.10;7.32;;;15.90;99.90;;;;;;5055745;28;20056;-73
2022/05/10 08:00:44;;;;;;;10.25;7.22;;;15.90;99.90;;;;;;5054033;28;20045;-72
2022/05/10 08:03:21;;;;;;;7.10;5.88;;;15.90;99.90;;;;;;5056466;28;20044;-73
2022/05/10 08:05:49;;;;;;;9.13;6.70;;;15.90;99.90;;;;;;5038060;28;20052;-73
2022/05/10 08:08:26;;;;;;;7.60;5.90;;;15.90;99.90;;;;;;5054894;28;20041;-75
2022/05/10 08:11:01;;;;;;;9.20;6.32;;;15.90;99.90;;;;;;5055954;28;20052;-77
2022/05/10 08:13:29;;;;;;;9.25;6.50;;;15.90;99.90;;;;;;5055795;28;20464;-72
2022/05/10 08:15:56;;;;;;;10.98;6.70;;;16.00;99.90;;;;;;5054545;28;20052;-74
2022/05/10 08:18:23;;;;;;;8.38;5.18;;;16.10;99.90;;;;;;5056265;28;20453;-75
2022/05/10 08:20:51;;;;;;;9.77;6.07;;;16.20;99.90;;;;;;5055809;28;20049;-73
2022/05/10 08:23:21;;;;;;;10.43;8.23;;;16.30;99.90;;;;;;5054952;28;20060;-74
2022/05/10 08:25:49;;;;;;;6.65;5.68;;;16.40;99.90;;;;;;5054913;28;20381;-74
2022/05/10 08:28:16;;;;;;;6.53;5.45;;;16.50;99.90;;;;;;5055089;28;20049;-76
2022/05/10 08:30:46;;;;;;;9.27;5.53;;;16.50;99.90;;;;;;5054244;28;20123;-75
2022/05/10 08:33:21;;;;;;;11.20;6.00;;;16.50;99.90;;;;;;5052455;28;20072;-76
2022/05/10 08:35:48;;;;;;;8.93;5.78;;;16.50;99.90;;;;;;5054336;28;20053;-67
2022/05/10 08:38:15;;;;;;;9.05;5.65;;;16.40;99.90;;;;;;5055365;28;20070;-67
2022/05/10 08:41:04;;;;;;;13.98;5.40;;;16.40;99.90;;;;;;5053682;28;20476;-66
2022/05/10 08:43:32;;;;;;;7.82;4.95;;;16.50;99.90;;;;;;5056077;28;20457;-66
2022/05/10 08:45:59;;;;;;;6.30;5.05;;;16.50;99.90;;;;;;5053532;28;20530;-67
2022/05/10 08:48:27;;;;;;;8.65;5.18;;;16.60;99.90;;;;;;5053435;28;20037;-68
2022/05/10 08:50:54;;;;;;;10.02;6.10;;;16.70;99.90;;;;;;5053585;28;20049;-67
2022/05/10 08:53:21;;;;;;;10.18;4.78;;;16.70;99.90;;;;;;5054501;28;20041;-67
2022/05/10 08:55:52;;;;;;;7.13;5.63;;;16.70;99.90;;;;;;5053663;28;20052;-67
2022/05/10 08:58:31;;;;;;;7.53;5.35;;;16.70;99.90;;;;;;5053545;28;20439;-67
2022/05/10 09:01:22;;;;;;;;;;;16.70;99.90;;;;;;5055032;28;20112;-68
2022/05/10 09:04:35;;;;;;;9.20;5.32;;;16.80;99.90;;;;;;5037056;28;20237;-68
2022/05/10 09:07:18;;;;;;;6.18;3.95;;;16.90;99.90;;;;;;5043804;28;20132;-68
2022/05/10 09:10:18;;;;;;;42.95;38.40;;;16.80;99.90;;;;;;5064705;28;20037;-67
2022/05/10 09:12:58;;;;;;;10.32;6.68;;;16.80;99.90;;;;;;5053304;28;20045;-67
2022/05/10 09:15:26;;;;;;;7.03;4.82;;;16.80;99.90;;;;;;5053550;28;20412;-67
2022/05/10 09:17:53;;;;;;;12.02;5.68;;;16.60;99.90;;;;;;5053270;28;20076;-68
2022/05/10 09:20:20;;;;;;;22.63;17.23;;;16.60;99.90;;;;;;5036515;28;20126;-66
2022/05/10 09:23:19;;;;;;;22.88;18.58;;;16.60;99.90;;;;;;5053963;28;20460;-68
2022/05/10 09:25:46;;;;;;;21.92;19.42;;;16.60;99.90;;;;;;5053623;28;20041;-67
2022/05/10 09:28:21;;;;;;;11.18;9.32;;;16.60;99.90;;;;;;5054458;28;20095;-70
2022/05/10 09:36:27;;;;;;;6.25;3.97;;;16.80;99.90;;;;;;5053822;28;20548;-71
2022/05/10 09:39:35;;;;;;;7.38;3.45;;;16.80;99.90;;;;;;5052471;28;20045;-71
2022/05/10 09:42:02;;;;;;;7.95;3.60;;;17.00;99.90;;;;;;5039396;28;20062;-68
2022/05/10 09:44:29;;;;;;;6.60;3.58;;;17.00;99.90;;;;;;5053592;28;20049;-65
2022/05/10 09:47:13;;;;;;;5.47;3.72;;;17.10;99.90;;;;;;5054597;28;20037;-66
2022/05/10 09:49:41;;;;;;;6.03;3.72;;;17.20;99.90;;;;;;5053507;28;20052;-69
2022/05/10 09:52:18;;;;;;;7.22;3.53;;;17.20;99.90;;;;;;5053762;28;20113;-71
2022/05/10 09:54:45;;;;;;;5.65;4.03;;;17.10;99.90;;;;;;5052157;28;20040;-74
2022/05/10 09:57:25;;;;;;;5.45;3.60;;;17.10;99.90;;;;;;5052034;28;20049;-70
2022/05/10 09:59:52;;;;;;;5.97;3.72;;;17.20;99.90;;;;;;5052787;28;20529;-69
2022/05/10 10:02:31;;;;;;;6.57;3.97;;;17.40;99.90;;;;;;5052101;28;20052;-69
2022/05/10 10:04:58;;;;;;;22.42;16.75;;;17.50;99.90;;;;;;5052930;28;20074;-70
2022/05/10 10:07:28;;;;;;;9.60;5.57;;;17.40;99.90;;;;;;5053286;28;20136;-71
2022/05/10 10:09:56;;;;;;;6.25;4.38;;;17.60;99.90;;;;;;5052480;28;20135;-72
2022/05/10 10:12:41;;;;;;;8.18;4.05;;;17.70;99.90;;;;;;5052017;28;20037;-72
2022/05/10 10:15:35;;;;;;;7.75;3.47;;;17.80;99.90;;;;;;5052030;28;20045;-71
2022/05/10 10:18:05;;;;;;;6.25;3.30;;;18.00;99.90;;;;;;5051824;28;20480;-72
2022/05/10 10:20:48;;;;;;;5.22;3.83;;;18.20;99.90;;;;;;5054183;28;20084;-71
2022/05/10 10:23:24;;;;;;;7.80;3.70;;;18.40;99.90;;;;;;5053335;28;20473;-71
2022/05/10 10:25:52;;;;;;;5.07;3.55;;;18.60;99.90;;;;;;5052597;28;20049;-73
2022/05/10 10:28:24;;;;;;;4.93;3.75;;;18.90;99.90;;;;;;5051817;28;20128;-70
2022/05/10 10:30:55;;;;;;;5.63;2.90;;;19.10;99.90;;;;;;5052668;28;20045;-72
2022/05/10 10:33:25;;;;;;;4.68;3.40;;;19.20;99.90;;;;;;5052792;28;20063;-76
2022/05/10 10:36:03;;;;;;;8.48;3.47;;;19.30;99.90;;;;;;5053329;28;20116;-77
2022/05/10 10:38:41;;;;;;;5.65;4.07;;;19.20;99.90;;;;;;5052205;28;20049;-79
2022/05/10 10:41:10;;;;;;;6.00;3.95;;;19.00;99.90;;;;;;5053887;28;20524;-75
2022/05/10 10:44:04;;;;;;;6.35;3.67;;;18.90;99.90;;;;;;5051841;28;20048;-72
2022/05/10 10:46:40;;;;;;;5.97;3.70;;;18.90;99.90;;;;;;5052901;28;20049;-68
2022/05/10 10:49:16;;;;;;;6.45;3.35;;;18.80;99.90;;;;;;5051979;28;20056;-68
2022/05/10 10:51:42;;;;;;;9.20;3.95;;;18.70;99.90;;;;;;5052701;28;20049;-69
2022/05/10 10:54:19;;;;;;;7.10;4.05;;;18.60;99.90;;;;;;5053769;28;20048;-71
2022/05/10 10:57:10;;;;;;;16.48;14.57;;;18.60;99.90;;;;;;5053566;28;20049;-68
2022/05/10 10:59:50;;;;;;;7.82;6.25;;;18.50;99.90;;;;;;5056751;28;20132;-68
2022/05/10 11:02:47;;;;;;;71.25;63.65;;;18.60;99.90;;;;;;5057442;28;20049;-73
2022/05/10 11:05:40;;;;;;;24.10;15.57;;;18.30;99.90;;;;;;5057034;28;20469;-69
2022/05/10 11:08:32;;;;;;;10.23;5.97;;;18.20;99.90;;;;;;5056466;28;20140;-69
2022/05/10 11:11:11;;;;;;;8.48;4.88;;;18.10;99.90;;;;;;5057508;28;20037;-67
2022/05/10 11:13:51;;;;;;;6.22;3.28;;;18.30;99.90;;;;;;5056763;28;20170;-70
2022/05/10 11:16:23;;;;;;;;;;;18.40;99.90;;;;;;5057825;28;20041;-70
2022/05/10 11:18:50;;;;;;;5.07;4.13;;;18.60;99.90;;;;;;5057070;28;19943;-69
2022/05/10 11:21:42;;;;;;;8.88;4.38;;;18.60;99.90;;;;;;5056464;28;20053;-69
2022/05/10 11:24:20;;;;;;;5.05;3.80;;;18.60;99.90;;;;;;5056220;28;20037;-68
2022/05/10 11:27:06;;;;;;;8.38;3.60;;;18.50;99.90;;;;;;5056069;28;20041;-69
2022/05/10 11:30:00;;;;;;;5.15;2.60;;;18.30;99.90;;;;;;5056034;28;20127;-65
2022/05/10 11:32:45;;;;;;;8.68;3.13;;;18.30;99.90;;;;;;5054874;28;20102;-68
2022/05/10 11:35:15;;;;;;;7.85;3.08;;;18.30;99.90;;;;;;5054800;28;20465;-67
2022/05/10 11:38:02;;;;;;;5.55;3.35;;;18.20;99.90;;;;;;5055991;28;20049;-69
2022/05/10 11:40:41;;;;;;;6.57;3.28;;;18.10;99.90;;;;;;5055218;28;20362;-72
2022/05/10 11:43:22;;;;;;;6.03;3.13;;;18.00;99.90;;;;;;5054716;28;20051;-67
2022/05/10 11:46:08;;;;;;;5.53;2.90;;;17.80;99.90;;;;;;5056585;28;20052;-67
2022/05/10 11:48:43;;;;;;;4.22;3.10;;;17.80;99.90;;;;;;5056867;28;20102;-69
2022/05/10 11:54:28;;;;;;;7.85;3.50;;;17.70;99.90;;;;;;5056119;28;20045;-67
2022/05/10 11:56:55;;;;;;;5.55;3.65;;;17.60;99.90;;;;;;5055445;28;20511;-66
2022/05/10 11:59:32;;;;;;;5.60;3.95;;;17.50;99.90;;;;;;5054410;28;20059;-69
2022/05/10 12:02:00;;;;;;;33.97;30.45;;;17.30;99.90;;;;;;5054394;28;20045;-68
2022/05/10 12:04:46;;;;;;;8.18;6.22;;;17.20;99.90;;;;;;5038177;28;20052;-73
2022/05/10 12:07:19;;;;;;;18.33;14.18;;;17.10;99.90;;;;;;5055974;28;20053;-75
2022/05/10 12:09:52;;;;;;;6.95;5.68;;;17.10;99.90;;;;;;5055361;28;20044;-77
2022/05/10 12:12:51;;;;;;;6.20;4.07;;;17.00;99.90;;;;;;5055215;28;20045;-73
2022/05/10 12:21:19;;;;;;;7.05;5.22;;;16.70;99.90;;;;;;5054607;28;20417;-72
2022/05/10 12:24:19;;;;;;;6.10;4.43;;;17.00;99.90;;;;;;5055490;28;20548;-73
2022/05/10 12:26:49;;;;;;;6.85;4.60;;;17.20;99.90;;;;;;5053892;28;20128;-72
2022/05/10 12:29:39;;;;;;;9.35;4.75;;;17.40;99.90;;;;;;5055071;28;20095;-72
2022/05/10 12:32:08;;;;;;;6.05;4.57;;;17.70;99.90;;;;;;5055828;28;20063;-74
2022/05/10 12:34:54;;;;;;;6.45;5.25;;;18.00;99.90;;;;;;5054072;28;20057;-73
2022/05/10 12:37:27;;;;;;;5.15;4.30;;;18.40;99.90;;;;;;5055026;28;20052;-73
2022/05/10 12:40:17;;;;;;;7.15;5.10;;;18.60;99.90;;;;;;5055195;28;20041;-73
2022/05/10 12:43:12;;;;;;;15.98;12.55;;;19.00;99.90;;;;;;5054742;28;20045;-77
2022/05/10 12:45:42;;;;;;;52.83;47.63;;;19.40;99.90;;;;;;5055355;28;20056;-63
2022/05/10 12:48:44;;;;;;;20.48;18.67;;;19.60;99.90;;;;;;5055649;28;20045;-73
2022/05/10 12:51:29;;;;;;;8.43;6.97;;;19.60;99.90;;;;;;5054714;28;20044;-73
2022/05/10 12:54:25;;;;;;;7.60;5.78;;;19.70;99.90;;;;;;5054565;28;20045;-73
2022/05/10 12:56:56;;;;;;;6.63;4.85;;;19.80;99.90;;;;;;5054448;28;20057;-73
2022/05/10 13:00:13;;;;;;;5.35;4.05;;;19.90;99.90;;;;;;5054112;28;20045;-74
2022/05/10 13:02:45;;;;;;;5.35;4.70;;;19.90;99.90;;;;;;5052285;28;20064;-74
2022/05/10 13:05:15;;;;;;;6.10;4.38;;;20.00;99.90;;;;;;5037078;28;20111;-73
2022/05/10 13:07:54;;;;;;;6.60;4.65;;;20.20;99.90;;;;;;5044022;28;20052;-74
2022/05/10 13:10:21;;;;;;;5.30;4.68;;;20.30;99.90;;;;;;5054314;28;20095;-73
2022/05/10 13:12:54;;;;;;;7.18;5.00;;;20.50;99.90;;;;;;5053053;28;20047;-73
2022/05/10 13:15:22;;;;;;;6.55;5.95;;;20.60;99.90;;;;;;5037033;28;20052;-73
2022/05/10 13:17:51;;;;;;;5.97;4.05;;;20.50;99.90;;;;;;5054825;28;20040;-73
2022/05/10 13:20:23;;;;;;;7.97;5.38;;;20.60;99.90;;;;;;5036277;28;20132;-73
2022/05/10 13:23:00;;;;;;;6.53;5.18;;;20.60;99.90;;;;;;5053153;28;20055;-73
2022/05/10 13:25:32;;;;;;;5.30;4.80;;;20.60;99.90;;;;;;5052746;28;20051;-74
2022/05/10 13:28:17;;;;;;;7.28;5.00;;;20.70;99.90;;;;;;5054966;28;20130;-74
2022/05/10 13:30:50;;;;;;;5.68;4.07;;;20.90;99.90;;;;;;5053471;28;20037;-74
2022/05/10 13:33:24;;;;;;;5.72;4.47;;;20.90;99.90;;;;;;5052812;28;20067;-74
2022/05/10 13:36:02;;;;;;;5.70;4.90;;;21.00;99.90;;;;;;5052521;28;20511;-74
2022/05/10 13:38:46;;;;;;;5.18;4.60;;;21.00;99.90;;;;;;5052602;28;20049;-74